createdAt,value
2023-04-27T00:01:13.255Z,4.01
2023-04-27T00:03:41.986Z,4.00
2023-04-27T00:06:13.733Z,4.01
2023-04-27T00:08:45.949Z,4.01
2023-04-27T00:11:18.212Z,4.02
2023-04-27T00:14:00.566Z,4.03
2023-04-27T00:16:31.732Z,4.05
2023-04-27T00:19:01.574Z,4.06
2023-04-27T00:21:31.857Z,4.05
2023-04-27T00:24:03.035Z,4.03
2023-04-27T00:26:32.546Z,4.01
2023-04-27T00:29:04.841Z,3.94
2023-04-27T00:31:33.893Z,3.92
2023-04-27T00:34:03.126Z,3.87
2023-04-27T00:36:39.038Z,3.85
2023-04-27T00:39:13.557Z,3.82
2023-04-27T00:41:43.967Z,3.80
2023-04-27T00:44:28.673Z,3.78
2023-04-27T00:47:06.038Z,3.76
2023-04-27T00:49:36.823Z,3.75
2023-04-27T00:52:07.605Z,3.75
2023-04-27T00:54:40.276Z,3.74
2023-04-27T00:57:09.159Z,3.72
2023-04-27T00:59:38.097Z,3.68
2023-04-27T01:02:07.497Z,3.65
2023-04-27T01:04:37.313Z,3.62
2023-04-27T01:07:06.468Z,3.60
2023-04-27T01:09:35.303Z,3.58
2023-04-27T01:12:04.644Z,3.57
2023-04-27T01:14:33.164Z,3.57
2023-04-27T01:17:02.098Z,3.56
2023-04-27T01:19:34.631Z,3.54
2023-04-27T01:22:05.893Z,3.52
2023-04-27T01:24:34.796Z,3.43
2023-04-27T01:27:07.327Z,3.40
2023-04-27T01:29:40.416Z,3.40
2023-04-27T01:32:12.626Z,3.40
2023-04-27T01:34:41.445Z,3.42
2023-04-27T01:37:10.451Z,3.41
2023-04-27T01:39:41.920Z,3.40
2023-04-27T01:42:13.547Z,3.37
2023-04-27T01:44:42.372Z,3.33
2023-04-27T01:47:14.858Z,3.28
2023-04-27T01:49:45.831Z,3.24
2023-04-27T01:52:20.186Z,3.20
2023-04-27T01:54:52.901Z,3.17
2023-04-27T01:57:25.596Z,3.15
2023-04-27T02:00:00.481Z,3.13
2023-04-27T02:02:29.758Z,3.12
2023-04-27T02:04:59.215Z,3.10
2023-04-27T02:07:31.393Z,3.09
2023-04-27T02:10:00.499Z,3.08
2023-04-27T02:12:29.661Z,3.06
2023-04-27T02:14:58.650Z,3.03
2023-04-27T02:17:32.666Z,2.99
2023-04-27T02:20:02.038Z,2.96
2023-04-27T02:22:34.645Z,2.93
2023-04-27T02:25:07.836Z,2.90
2023-04-27T02:27:41.366Z,2.87
2023-04-27T02:30:14.655Z,2.84
2023-04-27T02:32:47.706Z,2.82
2023-04-27T02:35:16.899Z,2.80
2023-04-27T02:37:46.145Z,2.78
2023-04-27T02:40:19.978Z,2.75
2023-04-27T02:42:49.751Z,2.73
2023-04-27T02:45:25.913Z,2.72
2023-04-27T02:47:55.663Z,2.66
2023-04-27T02:50:30.409Z,2.69
2023-04-27T02:53:01.230Z,2.76
2023-04-27T02:55:33.836Z,2.81
2023-04-27T02:58:05.944Z,2.86
2023-04-27T03:00:45.285Z,2.90
2023-04-27T03:03:15.019Z,2.85
2023-04-27T03:05:44.099Z,2.86
2023-04-27T03:08:13.656Z,2.91
2023-04-27T03:10:50.915Z,2.92
2023-04-27T03:13:28.163Z,2.95
2023-04-27T03:15:57.249Z,2.95
2023-04-27T03:18:26.387Z,2.98
2023-04-27T03:21:05.759Z,3.00
2023-04-27T03:23:35.412Z,3.00
2023-04-27T03:26:19.984Z,3.01
2023-04-27T03:28:51.739Z,2.99
2023-04-27T03:31:23.818Z,2.99
2023-04-27T03:33:54.980Z,2.97
2023-04-27T03:36:24.319Z,2.96
2023-04-27T03:38:53.552Z,2.94
2023-04-27T03:41:22.634Z,2.94
2023-04-27T03:43:53.836Z,2.95
2023-04-27T03:46:22.933Z,2.96
2023-04-27T03:48:52.590Z,2.95
2023-04-27T03:51:24.731Z,2.99
2023-04-27T03:54:05.922Z,3.00
2023-04-27T03:56:36.636Z,2.94
2023-04-27T03:59:06.006Z,2.98
2023-04-27T04:01:43.888Z,3.04
2023-04-27T04:04:15.342Z,3.14
2023-04-27T04:06:47.993Z,3.12
2023-04-27T04:09:23.963Z,3.25
2023-04-27T04:11:56.420Z,3.46
2023-04-27T04:14:29.124Z,3.66
2023-04-27T04:16:58.761Z,3.85
2023-04-27T04:19:33.902Z,4.03
2023-04-27T04:22:06.157Z,4.26
2023-04-27T04:24:35.904Z,4.45
2023-04-27T04:27:05.466Z,4.63
2023-04-27T04:29:40.462Z,4.84
2023-04-27T04:32:17.472Z,5.07
2023-04-27T04:34:51.534Z,5.29
2023-04-27T04:37:22.991Z,5.45
2023-04-27T04:39:53.225Z,5.62
2023-04-27T04:42:22.524Z,5.78
2023-04-27T04:44:53.660Z,5.95
2023-04-27T04:47:22.997Z,6.15
2023-04-27T04:49:51.983Z,6.38
2023-04-27T04:52:21.390Z,6.59
2023-04-27T04:55:00.711Z,6.80
2023-04-27T04:57:33.861Z,7.02
2023-04-27T05:00:10.975Z,7.22
2023-04-27T05:02:41.060Z,7.41
2023-04-27T05:05:21.877Z,7.57
2023-04-27T05:07:51.854Z,7.64
2023-04-27T05:10:25.220Z,7.69
2023-04-27T05:12:56.637Z,7.71
2023-04-27T05:15:28.208Z,7.71
2023-04-27T05:17:56.743Z,7.68
2023-04-27T05:20:27.065Z,7.71
2023-04-27T05:22:55.096Z,7.76
2023-04-27T05:25:23.114Z,7.73
2023-04-27T05:27:51.228Z,7.77
2023-04-27T05:30:19.556Z,7.82
2023-04-27T05:32:47.871Z,7.88
2023-04-27T05:35:16.169Z,8.00
2023-04-27T05:37:44.199Z,8.13
2023-04-27T05:40:12.348Z,8.32
2023-04-27T05:42:44.251Z,8.48
2023-04-27T05:45:13.560Z,8.68
2023-04-27T05:47:43.100Z,9.00
2023-04-27T05:50:12.158Z,9.26
2023-04-27T05:52:40.840Z,9.51
2023-04-27T05:55:10.525Z,9.81
2023-04-27T05:57:40.364Z,10.10
2023-04-27T06:00:22.104Z,10.44
2023-04-27T06:02:51.735Z,10.95
2023-04-27T06:05:21.344Z,11.32
2023-04-27T06:07:54.003Z,11.55
2023-04-27T06:10:31.269Z,11.61
2023-04-27T06:13:04.690Z,11.76
2023-04-27T06:15:35.242Z,12.10
2023-04-27T06:18:08.050Z,12.36
2023-04-27T06:20:47.249Z,12.43
2023-04-27T06:23:16.641Z,12.55
2023-04-27T06:25:53.099Z,12.66
2023-04-27T06:28:35.758Z,12.66
2023-04-27T06:31:10.096Z,12.61
2023-04-27T06:33:41.333Z,12.90
2023-04-27T06:36:09.998Z,13.39
2023-04-27T06:38:40.123Z,13.84
2023-04-27T06:41:08.785Z,13.94
2023-04-27T06:43:37.987Z,13.63
2023-04-27T06:46:11.850Z,13.13
2023-04-27T06:48:40.994Z,12.63
2023-04-27T06:51:09.575Z,12.35
2023-04-27T06:53:39.812Z,12.11
2023-04-27T06:56:12.284Z,11.95
2023-04-27T06:58:40.589Z,11.65
2023-04-27T07:01:09.550Z,11.35
2023-04-27T07:03:38.858Z,11.14
2023-04-27T07:06:07.474Z,11.12
2023-04-27T07:08:37.026Z,11.22
2023-04-27T07:11:05.917Z,11.41
2023-04-27T07:13:34.921Z,11.67
2023-04-27T07:16:08.137Z,11.95
2023-04-27T07:18:42.021Z,12.33
2023-04-27T07:21:15.735Z,12.69
2023-04-27T07:23:46.125Z,13.16
2023-04-27T07:26:14.686Z,13.58
2023-04-27T07:28:46.988Z,13.90
2023-04-27T07:31:16.009Z,14.34
2023-04-27T07:33:44.463Z,14.89
2023-04-27T07:36:15.642Z,15.36
2023-04-27T07:38:47.211Z,15.68
2023-04-27T07:41:16.861Z,15.91
2023-04-27T07:43:45.548Z,16.16
2023-04-27T07:46:22.491Z,16.39
2023-04-27T07:48:55.260Z,16.54
2023-04-27T07:51:25.358Z,16.66
2023-04-27T07:53:55.570Z,16.96
2023-04-27T07:56:26.683Z,17.34
2023-04-27T07:58:56.490Z,17.75
2023-04-27T08:01:28.178Z,18.18
2023-04-27T08:03:57.032Z,18.50
2023-04-27T08:06:28.675Z,18.44
2023-04-27T08:09:01.945Z,18.41
2023-04-27T08:11:35.615Z,18.33
2023-04-27T08:14:03.678Z,18.37
2023-04-27T08:16:32.171Z,18.44
2023-04-27T08:19:01.112Z,18.46
2023-04-27T08:21:32.553Z,18.27
2023-04-27T08:24:01.114Z,17.88
2023-04-27T08:26:29.596Z,17.38
2023-04-27T08:28:59.397Z,17.17
2023-04-27T08:31:28.565Z,17.00
2023-04-27T08:33:58.696Z,16.72
2023-04-27T08:36:28.813Z,16.49
2023-04-27T08:38:57.407Z,16.23
2023-04-27T08:41:26.104Z,15.94
2023-04-27T08:43:55.179Z,15.62
2023-04-27T08:46:27.254Z,15.30
2023-04-27T08:48:56.838Z,15.03
2023-04-27T08:51:27.367Z,14.86
2023-04-27T08:53:58.076Z,14.79
2023-04-27T08:56:29.047Z,14.83
2023-04-27T08:58:59.062Z,14.89
2023-04-27T09:01:30.099Z,14.80
2023-04-27T09:04:02.153Z,14.76
2023-04-27T09:06:35.901Z,14.96
2023-04-27T09:09:06.779Z,15.22
2023-04-27T09:11:37.508Z,15.41
2023-04-27T09:14:24.192Z,15.60
2023-04-27T09:16:59.035Z,15.96
2023-04-27T09:19:30.524Z,16.13
2023-04-27T09:22:10.887Z,16.36
2023-04-27T09:24:52.047Z,16.79
2023-04-27T09:27:21.762Z,17.30
2023-04-27T09:29:55.234Z,17.47
2023-04-27T09:32:24.203Z,17.39
2023-04-27T09:34:56.967Z,17.27
2023-04-27T09:37:26.948Z,17.28
2023-04-27T09:39:56.036Z,17.29
2023-04-27T09:42:24.828Z,17.00
2023-04-27T09:44:56.342Z,16.54
2023-04-27T09:47:28.468Z,16.16
2023-04-27T09:49:59.786Z,15.87
2023-04-27T09:52:28.888Z,15.49
2023-04-27T09:55:02.390Z,15.01
2023-04-27T09:57:51.958Z,14.63
2023-04-27T10:00:44.307Z,14.23
2023-04-27T10:03:36.614Z,13.81
2023-04-27T10:06:42.194Z,13.28
2023-04-27T10:09:10.824Z,12.88
2023-04-27T10:11:43.756Z,12.71
2023-04-27T10:14:21.210Z,12.42
2023-04-27T10:16:58.404Z,12.08
2023-04-27T10:19:28.377Z,11.76
2023-04-27T10:22:03.353Z,11.54
2023-04-27T10:24:40.437Z,11.36
2023-04-27T10:27:12.015Z,11.20
2023-04-27T10:29:47.740Z,11.15
2023-04-27T10:32:26.142Z,11.14
2023-04-27T10:35:09.115Z,11.12
2023-04-27T10:37:44.144Z,11.08
2023-04-27T10:40:14.940Z,11.07
2023-04-27T10:42:47.756Z,11.08
2023-04-27T10:45:31.142Z,11.08
2023-04-27T10:48:02.812Z,11.02
2023-04-27T10:50:33.903Z,11.07
2023-04-27T10:53:07.770Z,11.14
2023-04-27T10:55:37.197Z,11.20
2023-04-27T10:58:06.014Z,11.27
2023-04-27T11:00:44.336Z,11.40
2023-04-27T11:03:17.998Z,11.72
2023-04-27T11:06:03.764Z,12.10
2023-04-27T11:08:33.781Z,12.43
2023-04-27T11:11:02.414Z,12.53
2023-04-27T11:13:33.130Z,12.51
2023-04-27T11:16:05.101Z,12.42
2023-04-27T11:18:37.538Z,12.41
2023-04-27T11:21:18.429Z,12.36
2023-04-27T11:23:47.495Z,12.32
2023-04-27T11:26:22.272Z,12.31
2023-04-27T11:29:04.952Z,12.33
2023-04-27T11:31:44.280Z,12.42
2023-04-27T11:34:24.331Z,12.50
2023-04-27T11:37:17.432Z,12.59
2023-04-27T11:39:47.513Z,12.62
2023-04-27T11:42:22.636Z,12.65
2023-04-27T11:45:07.690Z,12.59
2023-04-27T11:47:36.612Z,12.64
2023-04-27T11:50:07.953Z,12.77
2023-04-27T11:52:39.702Z,12.82
2023-04-27T11:55:15.553Z,12.86
2023-04-27T11:57:43.952Z,12.91
2023-04-27T12:00:13.979Z,12.99
2023-04-27T12:02:44.547Z,13.13
2023-04-27T12:05:13.961Z,13.20
2023-04-27T12:07:42.984Z,13.19
2023-04-27T12:10:14.067Z,13.23
2023-04-27T12:12:42.358Z,13.36
2023-04-27T12:15:11.171Z,13.36
2023-04-27T12:17:39.572Z,13.27
2023-04-27T12:20:09.587Z,13.08
2023-04-27T12:22:38.402Z,12.91
2023-04-27T12:25:06.713Z,12.73
2023-04-27T12:27:37.168Z,12.58
2023-04-27T12:30:06.416Z,12.52
2023-04-27T12:32:34.509Z,12.52
2023-04-27T12:35:02.392Z,12.50
2023-04-27T12:37:30.385Z,12.51
2023-04-27T12:39:58.382Z,12.49
2023-04-27T12:42:26.520Z,12.49
2023-04-27T12:44:54.758Z,12.53
2023-04-27T12:47:46.047Z,12.55
2023-04-27T12:50:11.139Z,12.48
2023-04-27T12:52:44.687Z,12.61
2023-04-27T12:55:32.224Z,12.77
2023-04-27T12:58:08.635Z,12.84
2023-04-27T13:00:58.850Z,12.86
2023-04-27T13:03:28.308Z,12.89
2023-04-27T13:06:05.186Z,12.95
2023-04-27T13:08:40.784Z,12.90
2023-04-27T13:11:18.441Z,12.75
2023-04-27T13:13:50.457Z,12.67
2023-04-27T13:16:24.721Z,12.65
2023-04-27T13:18:56.489Z,12.76
2023-04-27T13:21:30.935Z,12.84
2023-04-27T13:24:02.996Z,12.97
2023-04-27T13:26:34.620Z,13.02
2023-04-27T13:29:07.155Z,12.99
2023-04-27T13:31:53.253Z,12.93
2023-04-27T13:34:26.770Z,12.86
2023-04-27T13:36:56.075Z,12.83
2023-04-27T13:39:28.890Z,12.79
2023-04-27T13:41:59.955Z,12.66
2023-04-27T13:44:34.204Z,12.52
2023-04-27T13:47:11.086Z,12.34
2023-04-27T13:49:40.480Z,12.06
2023-04-27T13:52:10.401Z,11.83
2023-04-27T13:54:53.900Z,11.61
2023-04-27T13:57:40.673Z,11.35
2023-04-27T14:00:15.710Z,11.21
2023-04-27T14:02:48.578Z,11.21
2023-04-27T14:05:22.135Z,11.26
2023-04-27T14:07:51.465Z,11.32
2023-04-27T14:10:25.569Z,11.41
2023-04-27T14:12:58.710Z,11.55
2023-04-27T14:15:29.441Z,11.67
2023-04-27T14:17:58.484Z,11.82
2023-04-27T14:20:27.809Z,11.95
2023-04-27T14:23:04.601Z,11.95
2023-04-27T14:25:37.098Z,11.97
2023-04-27T14:28:12.476Z,12.02
2023-04-27T14:30:45.665Z,12.07
2023-04-27T14:33:17.849Z,12.07
2023-04-27T14:35:52.044Z,12.03
2023-04-27T14:38:37.023Z,12.00
2023-04-27T14:41:09.581Z,11.90
2023-04-27T14:43:52.978Z,11.79
2023-04-27T14:46:24.716Z,11.76
2023-04-27T14:48:55.978Z,11.75
2023-04-27T14:51:30.038Z,11.68
2023-04-27T14:54:05.599Z,11.68
2023-04-27T14:56:44.390Z,11.68
2023-04-27T14:59:17.638Z,11.73
2023-04-27T15:01:48.740Z,11.76
2023-04-27T15:04:20.565Z,11.73
2023-04-27T15:06:52.669Z,11.71
2023-04-27T15:09:23.090Z,11.75
2023-04-27T15:11:55.392Z,11.84
2023-04-27T15:14:24.903Z,11.87
2023-04-27T15:16:54.781Z,11.84
2023-04-27T15:19:31.391Z,11.81
2023-04-27T15:22:03.483Z,11.71
2023-04-27T15:24:32.827Z,11.53
2023-04-27T15:27:10.215Z,11.41
2023-04-27T15:29:40.619Z,11.38
2023-04-27T15:32:14.939Z,11.38
2023-04-27T15:34:46.799Z,11.43
2023-04-27T15:37:40.942Z,11.49
2023-04-27T15:40:12.693Z,11.52
2023-04-27T15:42:40.970Z,11.38
2023-04-27T15:45:10.250Z,11.27
2023-04-27T15:47:38.500Z,11.17
2023-04-27T15:50:07.544Z,11.11
2023-04-27T15:52:36.805Z,11.11
2023-04-27T15:55:10.607Z,11.13
2023-04-27T15:57:55.668Z,11.11
2023-04-27T16:00:43.015Z,11.12
2023-04-27T16:03:13.922Z,11.12
2023-04-27T16:05:44.216Z,11.16
2023-04-27T16:08:19.388Z,11.20
2023-04-27T16:10:50.314Z,11.24
2023-04-27T16:13:24.836Z,11.16
2023-04-27T16:16:00.051Z,11.16
2023-04-27T16:18:35.821Z,11.15
2023-04-27T16:21:06.709Z,11.14
2023-04-27T16:23:41.164Z,11.14
2023-04-27T16:26:13.184Z,11.16
2023-04-27T16:28:45.478Z,11.20
2023-04-27T16:31:17.271Z,11.23
2023-04-27T16:33:58.550Z,11.23
2023-04-27T16:36:34.691Z,11.21
2023-04-27T16:39:09.680Z,11.16
2023-04-27T16:41:44.824Z,11.13
2023-04-27T16:44:26.851Z,11.08
2023-04-27T16:46:58.250Z,11.06
2023-04-27T16:49:36.324Z,11.03
2023-04-27T16:52:11.005Z,11.02
2023-04-27T16:54:40.751Z,11.01
2023-04-27T16:57:15.365Z,10.97
2023-04-27T16:59:45.092Z,10.98
2023-04-27T17:02:24.575Z,10.95
2023-04-27T17:04:56.896Z,10.87
2023-04-27T17:07:32.430Z,10.81
2023-04-27T17:10:15.251Z,10.74
2023-04-27T17:13:02.534Z,10.67
2023-04-27T17:15:40.218Z,10.61
2023-04-27T17:18:25.396Z,10.54
2023-04-27T17:20:59.723Z,10.47
2023-04-27T17:23:37.745Z,10.42
2023-04-27T17:26:22.626Z,10.37
2023-04-27T17:29:12.128Z,10.30
2023-04-27T17:31:51.300Z,10.21
2023-04-27T17:34:26.554Z,10.17
2023-04-27T17:37:02.448Z,10.13
2023-04-27T17:39:39.021Z,10.07
2023-04-27T17:42:11.904Z,10.03
2023-04-27T17:44:45.990Z,10.00
2023-04-27T17:47:28.333Z,9.94
2023-04-27T17:50:48.937Z,9.87
2023-04-27T17:53:35.670Z,9.82
2023-04-27T17:56:31.750Z,9.77
2023-04-27T17:59:09.849Z,9.70
2023-04-27T18:01:41.602Z,9.69
2023-04-27T18:04:10.897Z,9.67
2023-04-27T18:06:43.505Z,9.64
2023-04-27T18:09:18.027Z,9.58
2023-04-27T18:11:47.183Z,9.52
2023-04-27T18:14:16.482Z,9.46
2023-04-27T18:17:00.074Z,9.40
2023-04-27T18:19:35.250Z,9.33
2023-04-27T18:22:06.639Z,9.28
2023-04-27T18:24:35.999Z,9.24
2023-04-27T18:27:05.955Z,9.19
2023-04-27T18:29:46.111Z,9.12
2023-04-27T18:32:25.123Z,9.08
2023-04-27T18:34:59.582Z,9.03
2023-04-27T18:37:41.838Z,8.98
2023-04-27T18:40:11.663Z,8.90
2023-04-27T18:42:43.122Z,8.86
2023-04-27T18:45:21.829Z,8.82
2023-04-27T18:48:00.083Z,8.78
2023-04-27T18:50:29.978Z,8.75
2023-04-27T18:53:10.043Z,8.74
2023-04-27T18:55:40.464Z,8.71
2023-04-27T18:58:16.363Z,8.71
2023-04-27T19:00:50.265Z,8.71
2023-04-27T19:03:20.230Z,8.69
2023-04-27T19:05:54.192Z,8.68
2023-04-27T19:08:33.419Z,8.66
2023-04-27T19:11:52.620Z,8.65
2023-04-27T19:14:47.532Z,8.60
2023-04-27T19:17:32.950Z,8.57
2023-04-27T19:20:01.878Z,8.56
2023-04-27T19:22:36.729Z,8.55
2023-04-27T19:25:06.802Z,8.51
2023-04-27T19:27:36.767Z,8.37
2023-04-27T19:30:10.701Z,8.30
2023-04-27T19:32:42.586Z,8.25
2023-04-27T19:35:27.852Z,8.20
2023-04-27T19:38:05.309Z,8.15
2023-04-27T19:40:37.527Z,8.11
2023-04-27T19:43:09.484Z,8.06
2023-04-27T19:45:39.406Z,8.03
2023-04-27T19:48:09.380Z,7.97
2023-04-27T19:50:46.695Z,7.91
2023-04-27T19:53:19.351Z,7.85
2023-04-27T19:56:00.643Z,7.79
2023-04-27T19:58:43.104Z,7.73
2023-04-27T20:01:15.415Z,7.68
2023-04-27T20:03:53.044Z,7.63
2023-04-27T20:06:34.132Z,7.61
2023-04-27T20:09:12.944Z,7.61
2023-04-27T20:11:42.138Z,7.62
2023-04-27T20:14:14.697Z,7.62
2023-04-27T20:16:55.122Z,7.59
2023-04-27T20:19:24.861Z,7.58
2023-04-27T20:21:56.575Z,7.56
2023-04-27T20:24:28.709Z,7.53
2023-04-27T20:26:57.899Z,7.51
2023-04-27T20:29:27.135Z,7.47
2023-04-27T20:31:58.671Z,7.44
2023-04-27T20:34:28.616Z,7.39
2023-04-27T20:37:02.162Z,7.36
2023-04-27T20:39:32.246Z,7.35
2023-04-27T20:42:03.625Z,7.34
2023-04-27T20:44:34.796Z,7.32
2023-04-27T20:47:06.343Z,7.32
2023-04-27T20:49:39.328Z,7.33
2023-04-27T20:52:15.805Z,7.29
2023-04-27T20:54:49.320Z,7.23
2023-04-27T20:57:22.644Z,7.21
2023-04-27T20:59:56.748Z,7.21
2023-04-27T21:02:28.510Z,7.19
2023-04-27T21:05:01.830Z,7.19
2023-04-27T21:07:50.553Z,7.19
2023-04-27T21:10:26.657Z,7.19
2023-04-27T21:13:01.620Z,7.18
2023-04-27T21:15:36.222Z,7.17
2023-04-27T21:20:35.954Z,7.16
2023-04-27T21:23:07.709Z,7.10
2023-04-27T21:25:44.999Z,6.98
2023-04-27T21:28:23.552Z,6.87
2023-04-27T21:33:44.650Z,6.84
2023-04-27T21:36:21.413Z,6.87
2023-04-27T21:38:52.831Z,6.88
2023-04-27T21:41:24.692Z,6.91
2023-04-27T21:43:56.989Z,6.92
2023-04-27T21:46:31.848Z,6.89
2023-04-27T21:49:04.821Z,6.85
2023-04-27T21:51:34.702Z,6.82
2023-04-27T21:54:04.132Z,6.80
2023-04-27T21:56:33.902Z,6.78
2023-04-27T21:59:06.155Z,6.77
2023-04-27T22:01:35.194Z,6.73
2023-04-27T22:04:25.771Z,6.70
2023-04-27T22:07:21.492Z,6.64
2023-04-27T22:09:56.191Z,6.56
2023-04-27T22:12:25.500Z,6.51
2023-04-27T22:14:54.395Z,6.47
2023-04-27T22:17:28.786Z,6.49
2023-04-27T22:20:02.353Z,6.50
2023-04-27T22:22:34.656Z,6.48
2023-04-27T22:25:04.427Z,6.45
2023-04-27T22:27:42.034Z,6.40
2023-04-27T22:30:22.922Z,6.39
2023-04-27T22:32:52.497Z,6.38
2023-04-27T22:35:27.107Z,6.37
2023-04-27T22:38:01.828Z,6.29
2023-04-27T22:40:38.092Z,6.20
2023-04-27T22:43:09.945Z,6.15
2023-04-27T22:45:40.366Z,6.09
2023-04-27T22:48:09.520Z,6.12
2023-04-27T22:50:43.180Z,6.10
2023-04-27T22:53:12.036Z,6.09
2023-04-27T22:55:40.806Z,6.07
2023-04-27T22:58:09.722Z,6.04
2023-04-27T23:00:42.935Z,6.03
2023-04-27T23:03:13.477Z,6.03
2023-04-27T23:05:43.208Z,6.01
2023-04-27T23:08:13.103Z,5.95
2023-04-27T23:10:50.865Z,5.88
2023-04-27T23:13:27.278Z,5.83
2023-04-27T23:15:56.697Z,5.82
2023-04-27T23:18:26.464Z,5.81
2023-04-27T23:20:59.089Z,5.81
2023-04-27T23:23:31.615Z,5.81
2023-04-27T23:26:03.807Z,5.86
2023-04-27T23:28:41.906Z,5.88
2023-04-27T23:31:12.897Z,5.90
2023-04-27T23:33:42.275Z,5.89
2023-04-27T23:36:11.722Z,5.87
2023-04-27T23:38:41.426Z,5.86
2023-04-27T23:41:15.991Z,5.83
2023-04-27T23:43:45.501Z,5.80
2023-04-27T23:46:14.607Z,5.76
2023-04-27T23:48:43.797Z,5.72
2023-04-27T23:51:16.175Z,5.72
2023-04-27T23:53:45.810Z,5.72
2023-04-27T23:56:19.486Z,5.75
2023-04-27T23:58:49.072Z,5.74
